Terminal Aerodrome Forecast
Issued by NWS Atlanta, GA

Home | Current Version | Previous Version | Text Only | Print | Product List | Glossary On
Versions: 1 2 3 4 5 6 7 8 9 10 11 12 13 14 15 16 17 18 19 20 21 22 23 24 25 26 27 28 29 30 31 32 33 34 35 36 37 38 39 40 41 42 43 44
000
FTUS42 KFFC 011955 AAA
TAFATL
TAF AMD
KATL 011955Z 0120/0224 08010KT 4SM BR OVC006
      TEMPO 0120/0122 2SM -DZ BR OVC005
     FM012200 08006KT 6SM BR BKN012
     FM020200 14005KT 3SM -DZ OVC008
     FM020600 VRB03KT 1SM -DZ OVC004
     FM021500 30005KT 4SM -DZ OVC008
     FM021900 30006KT P6SM BKN012=

USA.gov is the U.S. government's official web portal to all federal, state and local government web resources and services.